createdAt,value
2018-05-21T00:00:05.060Z,46.93
2018-05-21T00:02:16.118Z,47.00
2018-05-21T00:04:27.206Z,46.47
2018-05-21T00:06:38.259Z,46.99
2018-05-21T00:08:49.590Z,46.36
2018-05-21T00:11:00.758Z,46.25
2018-05-21T00:13:11.838Z,46.17
2018-05-21T00:15:23.033Z,45.95
2018-05-21T00:17:36.362Z,46.24
2018-05-21T00:19:47.518Z,46.29
2018-05-21T00:21:58.557Z,45.90
2018-05-21T00:24:09.610Z,46.17
2018-05-21T00:26:20.736Z,45.90
2018-05-21T00:28:31.798Z,46.00
2018-05-21T00:30:43.067Z,45.69
2018-05-21T00:32:54.135Z,45.83
2018-05-21T00:35:05.238Z,45.77
2018-05-21T00:37:16.314Z,45.82
2018-05-21T00:39:27.402Z,45.95
2018-05-21T00:41:38.466Z,45.93
2018-05-21T00:43:49.518Z,46.25
2018-05-21T00:46:00.694Z,46.08
2018-05-21T00:48:11.793Z,45.86
2018-05-21T00:50:22.936Z,46.30
2018-05-21T00:52:34.051Z,46.19
2018-05-21T00:54:57.335Z,46.31
2018-05-21T00:57:08.460Z,46.17
2018-05-21T00:59:19.594Z,46.59
2018-05-21T01:01:30.687Z,46.91
2018-05-21T01:03:41.749Z,47.22
2018-05-21T01:05:52.837Z,47.41
2018-05-21T01:08:03.924Z,47.17
2018-05-21T01:10:15.018Z,47.40
2018-05-21T01:12:26.149Z,47.53
2018-05-21T01:14:37.297Z,48.05
2018-05-21T01:16:48.354Z,47.87
2018-05-21T01:18:59.465Z,47.89
2018-05-21T01:21:10.631Z,47.94
2018-05-21T01:23:21.718Z,48.14
2018-05-21T01:25:32.811Z,48.27
2018-05-21T01:27:43.909Z,48.80
2018-05-21T01:29:54.969Z,48.99
2018-05-21T01:32:06.039Z,48.85
2018-05-21T01:34:17.182Z,48.92
2018-05-21T01:36:28.266Z,48.85
2018-05-21T01:38:39.550Z,48.88
2018-05-21T01:40:50.591Z,49.49
2018-05-21T01:43:01.657Z,49.22
2018-05-21T01:45:12.787Z,49.47
2018-05-21T01:47:23.842Z,49.89
2018-05-21T01:49:35.003Z,50.69
2018-05-21T01:51:46.049Z,51.54
2018-05-21T01:53:57.134Z,52.80
2018-05-21T01:56:08.247Z,53.65
2018-05-21T01:58:19.293Z,54.26
2018-05-21T02:00:30.366Z,55.05
2018-05-21T02:02:41.442Z,55.53
2018-05-21T02:04:52.516Z,55.70
2018-05-21T02:07:03.629Z,56.09
2018-05-21T02:09:14.690Z,56.53
2018-05-21T02:11:25.829Z,57.22
2018-05-21T02:13:36.934Z,57.31
2018-05-21T02:15:48.038Z,57.47
2018-05-21T02:17:59.120Z,57.13
2018-05-21T02:20:10.178Z,57.28
2018-05-21T02:22:21.318Z,57.39
2018-05-21T02:24:32.389Z,57.78
2018-05-21T02:26:43.537Z,58.79
2018-05-21T02:28:54.622Z,59.08
2018-05-21T02:31:05.714Z,59.07
2018-05-21T02:33:16.794Z,59.17
2018-05-21T02:35:27.868Z,59.30
2018-05-21T02:37:39.062Z,59.75
2018-05-21T02:39:50.112Z,60.43
2018-05-21T02:42:01.227Z,60.80
2018-05-21T02:44:12.315Z,61.43
2018-05-21T02:46:23.446Z,61.89
2018-05-21T02:48:34.522Z,62.65
2018-05-21T02:50:45.634Z,63.04
2018-05-21T02:52:56.733Z,63.11
2018-05-21T02:55:07.801Z,63.47
2018-05-21T02:57:18.869Z,63.29
2018-05-21T02:59:30.039Z,63.58
2018-05-21T03:01:41.142Z,64.24
2018-05-21T03:03:52.185Z,64.81
2018-05-21T03:06:03.258Z,64.92
2018-05-21T03:08:14.340Z,65.00
2018-05-21T03:10:25.474Z,64.79
2018-05-21T03:12:36.529Z,64.64
2018-05-21T03:14:47.666Z,64.58
2018-05-21T03:16:58.736Z,65.07
2018-05-21T03:19:09.826Z,65.36
2018-05-21T03:21:20.869Z,65.25
2018-05-21T03:23:31.938Z,65.40
2018-05-21T03:25:43.022Z,65.16
2018-05-21T03:27:54.108Z,65.35
2018-05-21T03:30:05.283Z,65.23
2018-05-21T03:32:16.357Z,65.26
2018-05-21T03:34:27.477Z,65.59
2018-05-21T03:36:39.444Z,65.76
2018-05-21T03:38:50.529Z,66.05
2018-05-21T03:41:01.738Z,66.12
2018-05-21T03:43:12.778Z,66.07
2018-05-21T03:45:23.957Z,66.01
2018-05-21T03:47:35.030Z,65.91
2018-05-21T03:49:46.065Z,66.11
2018-05-21T03:51:57.133Z,66.35
2018-05-21T03:54:08.177Z,66.52
2018-05-21T03:56:19.252Z,66.57
2018-05-21T03:58:42.618Z,66.86
2018-05-21T04:01:05.915Z,66.85
2018-05-21T04:03:29.182Z,66.50
2018-05-21T04:05:40.470Z,66.47
2018-05-21T04:07:51.640Z,66.57
2018-05-21T04:10:02.729Z,66.33
2018-05-21T04:12:13.921Z,66.39
2018-05-21T04:14:25.006Z,66.28
2018-05-21T04:16:36.153Z,66.20
2018-05-21T04:18:47.249Z,66.06
2018-05-21T04:20:58.234Z,66.06
2018-05-21T04:23:09.325Z,66.10
2018-05-21T04:25:20.547Z,65.71
2018-05-21T04:27:31.662Z,65.74
2018-05-21T04:29:42.761Z,65.33
2018-05-21T04:31:53.800Z,65.18
2018-05-21T04:34:04.886Z,64.93
2018-05-21T04:36:15.958Z,64.77
2018-05-21T04:38:27.015Z,65.05
2018-05-21T04:40:38.206Z,65.00
2018-05-21T04:42:49.423Z,64.97
2018-05-21T04:45:00.585Z,64.62
2018-05-21T04:47:11.672Z,64.21
2018-05-21T04:49:22.735Z,63.96
2018-05-21T04:51:33.870Z,63.75
2018-05-21T04:53:44.913Z,63.57
2018-05-21T04:55:55.990Z,63.47
2018-05-21T04:58:07.041Z,63.55
2018-05-21T05:00:18.178Z,63.37
2018-05-21T05:02:29.254Z,63.08
2018-05-21T05:04:40.318Z,62.68
2018-05-21T05:06:51.390Z,62.69
2018-05-21T05:09:02.418Z,62.42
2018-05-21T05:11:13.498Z,62.07
2018-05-21T05:13:24.561Z,61.33
2018-05-21T05:15:35.650Z,60.39
2018-05-21T05:17:46.785Z,61.20
2018-05-21T05:19:57.909Z,60.86
2018-05-21T05:22:08.978Z,60.33
2018-05-21T05:24:20.019Z,59.97
2018-05-21T05:26:31.168Z,57.98
2018-05-21T05:28:43.643Z,57.59
2018-05-21T05:30:54.863Z,57.18
2018-05-21T05:33:06.789Z,55.95
2018-05-21T05:35:17.865Z,54.75
2018-05-21T05:37:28.959Z,53.92
2018-05-21T05:39:40.134Z,54.16
2018-05-21T05:41:51.186Z,53.98
2018-05-21T05:44:02.338Z,52.99
2018-05-21T05:46:13.382Z,52.19
2018-05-21T05:48:24.454Z,52.12
2018-05-21T05:50:35.565Z,50.92
2018-05-21T05:52:46.660Z,50.41
2018-05-21T05:54:57.831Z,49.11
2018-05-21T05:57:08.930Z,49.03
2018-05-21T05:59:20.122Z,48.71
2018-05-21T06:01:31.235Z,49.43
2018-05-21T06:03:42.328Z,49.35
2018-05-21T06:05:53.429Z,49.06
2018-05-21T06:08:04.484Z,48.09
2018-05-21T06:10:15.593Z,47.30
2018-05-21T06:12:26.757Z,47.49
2018-05-21T06:14:37.861Z,46.85
2018-05-21T06:16:48.973Z,46.58
2018-05-21T06:19:00.200Z,45.98
2018-05-21T06:21:11.279Z,45.61
2018-05-21T06:23:22.322Z,44.84
2018-05-21T06:25:33.378Z,44.65
2018-05-21T06:27:44.473Z,44.17
2018-05-21T06:29:55.548Z,43.68
2018-05-21T06:32:06.707Z,44.65
2018-05-21T06:34:17.792Z,43.66
2018-05-21T06:36:28.858Z,43.76
2018-05-21T06:38:39.920Z,44.05
2018-05-21T06:40:50.977Z,43.07
2018-05-21T06:43:02.138Z,42.26
2018-05-21T06:45:13.188Z,42.93
2018-05-21T06:47:24.314Z,41.99
2018-05-21T06:49:35.385Z,41.92
2018-05-21T06:51:46.567Z,41.46
2018-05-21T06:53:57.642Z,41.30
2018-05-21T06:56:08.697Z,40.45
2018-05-21T06:58:19.790Z,40.31
2018-05-21T07:00:30.827Z,39.36
2018-05-21T07:02:41.980Z,39.15
2018-05-21T07:04:53.051Z,39.61
2018-05-21T07:07:04.155Z,39.07
2018-05-21T07:09:15.214Z,39.63
2018-05-21T07:11:26.416Z,38.73
2018-05-21T07:13:37.520Z,37.80
2018-05-21T07:15:48.677Z,37.65
2018-05-21T07:17:59.771Z,38.48
2018-05-21T07:20:10.830Z,40.38
2018-05-21T07:22:21.970Z,40.05
2018-05-21T07:24:33.232Z,39.78
2018-05-21T07:26:44.283Z,41.15
2018-05-21T07:28:55.391Z,41.39
2018-05-21T07:31:06.574Z,40.88
2018-05-21T07:33:17.679Z,39.98
2018-05-21T07:35:28.768Z,40.36
2018-05-21T07:37:39.854Z,41.12
2018-05-21T07:39:51.029Z,41.73
2018-05-21T07:42:02.134Z,39.75
2018-05-21T07:44:13.235Z,40.68
2018-05-21T07:46:24.510Z,41.11
2018-05-21T07:48:35.602Z,40.18
2018-05-21T07:50:46.811Z,40.34
2018-05-21T07:52:57.876Z,40.04
2018-05-21T07:55:08.948Z,41.24
2018-05-21T07:57:20.082Z,39.88
2018-05-21T07:59:31.130Z,40.41
2018-05-21T08:01:42.335Z,40.23
2018-05-21T08:03:53.382Z,40.86
2018-05-21T08:06:04.548Z,41.11
2018-05-21T08:08:15.775Z,39.33
2018-05-21T08:10:26.911Z,40.82
2018-05-21T08:12:42.233Z,39.52
2018-05-21T08:14:54.082Z,39.83
2018-05-21T08:17:05.143Z,41.28
2018-05-21T08:19:16.506Z,41.00
2018-05-21T08:21:27.594Z,40.66
2018-05-21T08:23:38.865Z,40.33
2018-05-21T08:25:50.010Z,40.32
2018-05-21T08:28:01.091Z,40.14
2018-05-21T08:30:12.141Z,39.94
2018-05-21T08:32:23.276Z,40.46
2018-05-21T08:34:34.394Z,40.07
2018-05-21T08:36:45.510Z,40.10
2018-05-21T08:38:56.624Z,40.16
2018-05-21T08:41:07.686Z,38.99
2018-05-21T08:43:18.833Z,38.32
2018-05-21T08:45:35.271Z,39.80
2018-05-21T08:50:08.825Z,39.14
2018-05-21T08:52:20.526Z,40.50
2018-05-21T08:54:32.011Z,39.83
2018-05-21T08:56:43.331Z,39.31
2018-05-21T08:58:54.491Z,39.44
2018-05-21T09:01:05.603Z,38.35
2018-05-21T09:03:16.733Z,38.65
2018-05-21T09:05:27.797Z,39.94
2018-05-21T09:07:38.913Z,38.34
2018-05-21T09:09:50.181Z,38.20
2018-05-21T09:12:01.301Z,38.39
2018-05-21T09:14:12.434Z,38.69
2018-05-21T09:16:23.653Z,38.23
2018-05-21T09:18:34.671Z,37.95
2018-05-21T09:20:45.781Z,37.44
2018-05-21T09:22:56.912Z,37.77
2018-05-21T09:25:08.026Z,39.47
2018-05-21T09:27:19.134Z,38.49
2018-05-21T09:29:30.237Z,39.34
2018-05-21T09:31:41.459Z,37.79
2018-05-21T09:33:52.575Z,39.20
2018-05-21T09:36:03.668Z,40.21
2018-05-21T09:38:14.811Z,39.48
2018-05-21T09:40:25.857Z,38.02
2018-05-21T09:42:37.101Z,38.19
2018-05-21T09:44:48.226Z,37.75
2018-05-21T09:46:59.476Z,38.66
2018-05-21T09:49:10.603Z,40.36
2018-05-21T09:51:21.766Z,37.72
2018-05-21T09:53:33.010Z,38.10
2018-05-21T09:55:44.082Z,37.07
2018-05-21T09:57:55.161Z,36.40
2018-05-21T10:00:06.250Z,36.95
2018-05-21T10:02:17.327Z,39.48
2018-05-21T10:04:28.421Z,40.48
2018-05-21T10:06:39.639Z,38.24
2018-05-21T10:08:50.782Z,39.95
2018-05-21T10:11:01.886Z,38.32
2018-05-21T10:13:13.030Z,37.82
2018-05-21T10:15:24.130Z,37.13
2018-05-21T10:17:35.222Z,37.43
2018-05-21T10:19:46.336Z,38.92
2018-05-21T10:21:57.414Z,37.66
2018-05-21T10:24:08.540Z,38.27
2018-05-21T10:26:19.613Z,38.82
2018-05-21T10:28:30.803Z,37.53
2018-05-21T10:30:41.907Z,37.90
2018-05-21T10:32:52.996Z,37.62
2018-05-21T10:35:04.088Z,38.41
2018-05-21T10:37:15.164Z,39.64
2018-05-21T10:39:26.291Z,38.67
2018-05-21T10:41:37.472Z,37.51
2018-05-21T10:43:48.590Z,36.72
2018-05-21T10:45:59.755Z,38.36
2018-05-21T10:48:10.851Z,39.31
2018-05-21T10:50:21.986Z,38.00
2018-05-21T10:52:33.038Z,37.72
2018-05-21T10:54:44.138Z,37.68
2018-05-21T10:56:55.234Z,37.10
2018-05-21T10:59:06.319Z,40.85
2018-05-21T11:01:17.428Z,38.06
2018-05-21T11:03:28.487Z,37.23
2018-05-21T11:05:39.628Z,36.50
2018-05-21T11:07:51.435Z,36.79
2018-05-21T11:10:03.515Z,38.01
2018-05-21T11:12:16.667Z,37.16
2018-05-21T11:14:28.110Z,36.02
2018-05-21T11:16:39.211Z,36.91
2018-05-21T11:18:50.314Z,38.15
2018-05-21T11:21:01.524Z,36.14
2018-05-21T11:23:12.596Z,38.33
2018-05-21T11:25:23.803Z,37.91
2018-05-21T11:27:34.872Z,36.88
2018-05-21T11:29:46.875Z,36.58
2018-05-21T11:31:58.076Z,36.53
2018-05-21T11:34:09.865Z,36.44
2018-05-21T11:36:21.575Z,36.75
2018-05-21T11:38:34.252Z,36.14
2018-05-21T11:40:45.364Z,36.52
2018-05-21T11:42:56.506Z,34.74
2018-05-21T11:45:07.578Z,36.35
2018-05-21T11:47:18.727Z,34.87
2018-05-21T11:49:31.152Z,36.11
2018-05-21T11:51:42.209Z,33.63
2018-05-21T11:53:53.287Z,34.08
2018-05-21T11:56:04.846Z,33.49
2018-05-21T11:58:16.050Z,35.15
2018-05-21T12:00:27.157Z,35.54
2018-05-21T12:02:38.337Z,35.23
2018-05-21T12:04:49.461Z,36.19
2018-05-21T12:07:00.541Z,37.56
2018-05-21T12:09:12.319Z,37.07
2018-05-21T12:11:23.473Z,34.64
2018-05-21T12:13:34.608Z,35.65
2018-05-21T12:15:45.778Z,35.94
2018-05-21T12:17:56.869Z,37.12
2018-05-21T12:20:07.952Z,36.49
2018-05-21T12:22:19.109Z,35.41
2018-05-21T12:24:30.185Z,35.67
2018-05-21T12:26:41.481Z,36.70
2018-05-21T12:28:52.594Z,35.74
2018-05-21T12:31:03.756Z,35.58
2018-05-21T12:33:14.854Z,36.55
2018-05-21T12:35:25.954Z,36.42
2018-05-21T12:37:37.075Z,37.45
2018-05-21T12:39:48.248Z,36.93
2018-05-21T12:41:59.254Z,36.83
2018-05-21T12:44:10.360Z,37.41
2018-05-21T12:46:21.525Z,36.38
2018-05-21T12:48:32.880Z,36.32
2018-05-21T12:50:43.985Z,34.62
2018-05-21T12:52:55.070Z,35.07
2018-05-21T12:55:06.131Z,34.67
2018-05-21T12:57:17.227Z,35.13
2018-05-21T12:59:29.035Z,36.55
2018-05-21T13:01:40.137Z,34.30
2018-05-21T13:03:51.442Z,35.37
2018-05-21T13:06:03.099Z,38.42
2018-05-21T13:08:15.042Z,37.04
2018-05-21T13:10:26.980Z,35.90
2018-05-21T13:12:38.098Z,35.27
2018-05-21T13:14:49.201Z,35.19
2018-05-21T13:17:00.351Z,33.65
2018-05-21T13:19:11.518Z,34.16
2018-05-21T13:21:22.641Z,34.23
2018-05-21T13:23:33.796Z,34.21
2018-05-21T13:25:46.061Z,33.24
2018-05-21T13:27:57.188Z,35.19
2018-05-21T13:30:09.020Z,36.51
2018-05-21T13:32:20.046Z,35.34
2018-05-21T13:34:31.182Z,34.92
2018-05-21T13:36:42.296Z,33.87
2018-05-21T13:38:53.397Z,34.25
2018-05-21T13:41:04.523Z,34.24
2018-05-21T13:43:15.650Z,34.05
2018-05-21T13:45:26.689Z,33.98
2018-05-21T13:47:37.824Z,34.51
2018-05-21T13:49:48.892Z,35.79
2018-05-21T13:52:00.089Z,35.40
2018-05-21T13:54:11.174Z,34.94
2018-05-21T13:56:22.281Z,35.13
2018-05-21T13:58:33.354Z,35.11
2018-05-21T14:00:44.512Z,35.14
2018-05-21T14:02:55.646Z,33.84
2018-05-21T14:05:06.726Z,33.19
2018-05-21T14:07:17.951Z,35.16
2018-05-21T14:09:29.040Z,34.69
2018-05-21T14:11:40.262Z,32.81
2018-05-21T14:13:51.370Z,35.41
2018-05-21T14:16:02.570Z,34.22
2018-05-21T14:18:13.709Z,34.84
2018-05-21T14:20:24.842Z,35.26
2018-05-21T14:22:35.998Z,34.42
2018-05-21T14:24:47.085Z,34.21
2018-05-21T14:26:58.181Z,35.56
2018-05-21T14:29:09.278Z,35.18
2018-05-21T14:31:20.352Z,34.91
2018-05-21T14:33:31.485Z,34.45
2018-05-21T14:35:42.623Z,35.68
2018-05-21T14:37:53.758Z,36.72
2018-05-21T14:40:04.922Z,35.29
2018-05-21T14:42:16.114Z,34.67
2018-05-21T14:44:27.203Z,33.86
2018-05-21T14:46:38.393Z,33.89
2018-05-21T14:48:49.494Z,34.59
2018-05-21T14:51:00.623Z,35.74
2018-05-21T14:53:11.742Z,35.92
2018-05-21T14:55:22.891Z,35.30
2018-05-21T14:57:33.982Z,35.58
2018-05-21T14:59:45.128Z,35.11
2018-05-21T15:01:56.266Z,34.61
2018-05-21T15:04:07.368Z,34.50
2018-05-21T15:06:18.538Z,36.09
2018-05-21T15:08:29.601Z,34.93
2018-05-21T15:10:40.725Z,35.38
2018-05-21T15:12:51.886Z,34.84
2018-05-21T15:15:03.026Z,34.25
2018-05-21T15:17:14.179Z,35.28
2018-05-21T15:19:25.259Z,35.09
2018-05-21T15:21:36.327Z,34.31
2018-05-21T15:23:47.417Z,34.25
2018-05-21T15:25:58.574Z,34.86
2018-05-21T15:28:09.673Z,35.16
2018-05-21T15:30:20.769Z,34.82
2018-05-21T15:32:31.931Z,34.22
2018-05-21T15:34:42.984Z,34.68
2018-05-21T15:36:54.203Z,34.90
2018-05-21T15:39:05.449Z,34.52
2018-05-21T15:41:16.717Z,35.21
2018-05-21T15:43:27.810Z,37.48
2018-05-21T15:45:38.884Z,37.97
2018-05-21T15:47:50.002Z,41.53
2018-05-21T15:50:01.089Z,45.39
2018-05-21T15:52:12.172Z,45.63
2018-05-21T15:54:23.248Z,45.13
2018-05-21T15:56:34.450Z,46.34
2018-05-21T15:58:45.528Z,52.05
2018-05-21T16:00:56.681Z,54.13
2018-05-21T16:03:07.745Z,57.61
2018-05-21T16:05:18.922Z,57.82
2018-05-21T16:07:30.012Z,56.96
2018-05-21T16:09:41.114Z,54.98
2018-05-21T16:11:52.241Z,49.61
2018-05-21T16:14:03.340Z,54.83
2018-05-21T16:16:14.505Z,54.98
2018-05-21T16:18:25.592Z,57.48
2018-05-21T16:20:36.687Z,58.41
2018-05-21T16:22:47.803Z,58.62
2018-05-21T16:24:58.875Z,59.31
2018-05-21T16:27:09.982Z,61.56
2018-05-21T16:29:21.058Z,60.91
2018-05-21T16:31:32.349Z,62.73
2018-05-21T16:33:43.480Z,64.18
2018-05-21T16:35:54.678Z,66.22
2018-05-21T16:38:05.816Z,66.68
2018-05-21T16:40:16.912Z,65.00
2018-05-21T16:42:27.997Z,65.12
2018-05-21T16:44:39.072Z,66.41
2018-05-21T16:46:50.240Z,65.55
2018-05-21T16:49:01.334Z,65.82
2018-05-21T16:51:12.475Z,66.25
2018-05-21T16:53:23.570Z,66.26
2018-05-21T16:55:34.850Z,67.19
2018-05-21T16:57:45.943Z,67.48
2018-05-21T16:59:57.074Z,68.07
2018-05-21T17:02:08.222Z,68.46
2018-05-21T17:04:19.310Z,68.75
2018-05-21T17:06:30.487Z,68.72
2018-05-21T17:08:41.630Z,69.16
2018-05-21T17:10:52.775Z,69.28
2018-05-21T17:13:03.853Z,69.13
2018-05-21T17:15:15.143Z,69.02
2018-05-21T17:17:26.320Z,68.97
2018-05-21T17:19:37.484Z,69.50
2018-05-21T17:21:48.687Z,69.84
2018-05-21T17:23:59.880Z,69.32
2018-05-21T17:26:11.074Z,68.97
2018-05-21T17:28:22.171Z,69.24
2018-05-21T17:30:33.236Z,69.47
2018-05-21T17:32:44.334Z,67.40
2018-05-21T17:34:55.394Z,66.69
2018-05-21T17:37:06.532Z,68.50
2018-05-21T17:39:17.667Z,68.68
2018-05-21T17:41:28.854Z,68.97
2018-05-21T17:43:39.970Z,68.43
2018-05-21T17:45:51.095Z,68.92
2018-05-21T17:48:02.251Z,69.13
2018-05-21T17:50:13.310Z,69.20
2018-05-21T17:52:24.397Z,69.05
2018-05-21T17:54:35.462Z,68.96
2018-05-21T17:56:46.559Z,69.11
2018-05-21T17:58:57.650Z,68.63
2018-05-21T18:01:08.794Z,68.55
2018-05-21T18:03:19.880Z,68.93
2018-05-21T18:05:31.094Z,69.30
2018-05-21T18:07:42.255Z,69.28
2018-05-21T18:09:53.373Z,69.24
2018-05-21T18:12:04.441Z,69.30
2018-05-21T18:14:15.514Z,69.75
2018-05-21T18:16:26.714Z,70.26
2018-05-21T18:18:37.850Z,70.70
2018-05-21T18:20:49.013Z,70.31
2018-05-21T18:23:00.066Z,69.93
2018-05-21T18:25:11.251Z,70.44
2018-05-21T18:27:22.342Z,70.51
2018-05-21T18:29:33.426Z,70.29
2018-05-21T18:31:44.535Z,70.46
2018-05-21T18:33:55.645Z,70.17
2018-05-21T18:36:06.906Z,69.60
2018-05-21T18:38:17.951Z,69.49
2018-05-21T18:40:29.118Z,70.06
2018-05-21T18:42:40.293Z,69.94
2018-05-21T18:44:51.354Z,70.58
2018-05-21T18:47:02.418Z,70.35
2018-05-21T18:49:13.483Z,70.35
2018-05-21T18:51:24.545Z,70.44
2018-05-21T18:53:35.669Z,70.21
2018-05-21T18:55:46.895Z,70.15
2018-05-21T18:57:58.024Z,69.56
2018-05-21T19:00:09.116Z,69.69
2018-05-21T19:02:20.247Z,68.87
2018-05-21T19:04:31.367Z,67.89
2018-05-21T19:06:42.494Z,66.09
2018-05-21T19:08:53.595Z,64.62
2018-05-21T19:11:04.704Z,62.92
2018-05-21T19:13:15.817Z,64.64
2018-05-21T19:15:26.993Z,63.54
2018-05-21T19:17:38.118Z,61.81
2018-05-21T19:19:49.358Z,62.19
2018-05-21T19:22:01.406Z,62.96
2018-05-21T19:24:14.182Z,63.12
2018-05-21T19:26:25.277Z,61.89
2018-05-21T19:28:36.476Z,61.34
2018-05-21T19:30:47.705Z,60.55
2018-05-21T19:32:58.812Z,60.67
2018-05-21T19:35:09.933Z,61.43
2018-05-21T19:37:21.634Z,62.63
2018-05-21T19:39:32.768Z,62.53
2018-05-21T19:41:43.875Z,62.44
2018-05-21T19:43:54.948Z,60.78
2018-05-21T19:46:06.116Z,60.23
2018-05-21T19:48:17.266Z,59.31
2018-05-21T19:50:28.426Z,59.68
2018-05-21T19:52:39.585Z,59.27
2018-05-21T19:54:50.671Z,59.24
2018-05-21T19:57:01.782Z,58.83
2018-05-21T19:59:12.877Z,58.98
2018-05-21T20:01:23.973Z,59.71
2018-05-21T20:03:35.746Z,59.63
2018-05-21T20:05:46.807Z,59.66
2018-05-21T20:07:57.907Z,60.87
2018-05-21T20:10:08.982Z,60.61
2018-05-21T20:12:20.158Z,61.46
2018-05-21T20:14:31.412Z,60.83
2018-05-21T20:16:42.545Z,61.88
2018-05-21T20:18:53.660Z,61.43
2018-05-21T20:21:04.762Z,62.20
2018-05-21T20:23:16.000Z,63.11
2018-05-21T20:25:26.996Z,63.10
2018-05-21T20:27:38.068Z,63.62
2018-05-21T20:29:49.844Z,63.60
2018-05-21T20:32:00.934Z,63.73
2018-05-21T20:34:11.998Z,64.26
2018-05-21T20:36:23.119Z,63.69
2018-05-21T20:38:34.199Z,62.57
2018-05-21T20:40:45.315Z,62.93
2018-05-21T20:42:56.391Z,63.10
2018-05-21T20:45:07.490Z,63.90
2018-05-21T20:47:18.622Z,64.59
2018-05-21T20:49:29.713Z,65.52
2018-05-21T20:51:40.807Z,65.15
2018-05-21T20:53:51.888Z,65.02
2018-05-21T20:56:02.963Z,66.31
2018-05-21T20:58:14.112Z,65.53
2018-05-21T21:00:25.219Z,65.72
2018-05-21T21:02:36.374Z,65.86
2018-05-21T21:04:47.577Z,66.02
2018-05-21T21:06:58.674Z,66.85
2018-05-21T21:09:10.029Z,67.14
2018-05-21T21:11:21.129Z,67.58
2018-05-21T21:13:32.177Z,67.66
2018-05-21T21:15:43.259Z,66.96
2018-05-21T21:17:54.352Z,67.07
2018-05-21T21:20:05.639Z,66.77
2018-05-21T21:22:16.684Z,67.33
2018-05-21T21:24:27.786Z,67.44
2018-05-21T21:26:38.838Z,67.68
2018-05-21T21:28:50.191Z,67.80
2018-05-21T21:31:01.270Z,67.68
2018-05-21T21:33:12.334Z,67.27
2018-05-21T21:35:23.457Z,67.78
2018-05-21T21:37:34.724Z,67.66
2018-05-21T21:39:45.883Z,68.25
2018-05-21T21:41:56.954Z,68.19
2018-05-21T21:44:08.184Z,67.19
2018-05-21T21:46:19.251Z,67.38
2018-05-21T21:48:30.410Z,67.06
2018-05-21T21:50:41.506Z,67.45
2018-05-21T21:52:52.779Z,67.39
2018-05-21T21:55:03.848Z,67.96
2018-05-21T21:57:14.902Z,68.12
2018-05-21T21:59:25.962Z,68.49
2018-05-21T22:01:37.091Z,68.75
2018-05-21T22:03:48.174Z,69.22
2018-05-21T22:05:59.291Z,69.48
2018-05-21T22:08:10.359Z,69.30
2018-05-21T22:10:21.571Z,69.29
2018-05-21T22:12:32.666Z,69.73
2018-05-21T22:14:43.752Z,69.28
2018-05-21T22:16:54.860Z,69.60
2018-05-21T22:19:05.980Z,69.74
2018-05-21T22:21:17.066Z,69.52
2018-05-21T22:23:28.159Z,69.64
2018-05-21T22:25:39.288Z,70.20
2018-05-21T22:27:50.378Z,70.61
2018-05-21T22:30:01.484Z,70.51
2018-05-21T22:32:12.584Z,69.99
2018-05-21T22:34:23.648Z,69.34
2018-05-21T22:36:34.739Z,69.10
2018-05-21T22:38:45.890Z,69.39
2018-05-21T22:40:56.948Z,69.13
2018-05-21T22:43:08.094Z,69.43
2018-05-21T22:45:19.144Z,69.48
2018-05-21T22:47:30.187Z,69.25
2018-05-21T22:49:41.294Z,69.66
2018-05-21T22:51:52.394Z,69.38
2018-05-21T22:54:03.558Z,69.16
2018-05-21T22:56:14.638Z,68.47
2018-05-21T22:58:25.806Z,67.95
2018-05-21T23:00:36.894Z,67.91
2018-05-21T23:02:48.002Z,68.08
2018-05-21T23:04:59.059Z,67.80
2018-05-21T23:07:10.183Z,68.20
2018-05-21T23:09:21.286Z,68.24
2018-05-21T23:11:32.363Z,68.62
2018-05-21T23:13:43.675Z,68.66
2018-05-21T23:15:54.850Z,68.92
2018-05-21T23:18:05.993Z,68.89
2018-05-21T23:20:17.049Z,68.49
2018-05-21T23:22:40.359Z,68.39
2018-05-21T23:24:51.476Z,68.37
2018-05-21T23:27:02.722Z,68.03
2018-05-21T23:29:13.782Z,68.17
2018-05-21T23:31:24.887Z,67.67
2018-05-21T23:33:35.969Z,67.26
2018-05-21T23:35:47.043Z,66.63
2018-05-21T23:37:58.284Z,66.96
2018-05-21T23:40:09.338Z,66.72
2018-05-21T23:42:20.465Z,67.52
2018-05-21T23:44:31.658Z,67.48
2018-05-21T23:46:42.738Z,67.96
2018-05-21T23:48:53.834Z,67.96
2018-05-21T23:51:04.982Z,68.09
2018-05-21T23:53:15.938Z,68.31
2018-05-21T23:55:27.046Z,68.75
2018-05-21T23:57:38.174Z,68.94
2018-05-21T23:59:49.296Z,68.84
